sensor_id;sensor_type;location;lat;lon;timestamp;pressure;altitude;pressure_sealevel;temperature;humidity
43683;BME280;29285;52.128;21.060;2023-05-22T00:00:25;100836.01;;;15.88;85.59
43683;BME280;29285;52.128;21.060;2023-05-22T00:05:46;100829.50;;;15.83;85.71
43683;BME280;29285;52.128;21.060;2023-05-22T00:10:48;100831.44;;;15.82;85.89
43683;BME280;29285;52.128;21.060;2023-05-22T00:15:49;100829.81;;;15.84;86.12
43683;BME280;29285;52.128;21.060;2023-05-22T00:20:51;100828.64;;;15.82;86.30
43683;BME280;29285;52.128;21.060;2023-05-22T00:25:53;100823.55;;;15.77;86.36
43683;BME280;29285;52.128;21.060;2023-05-22T00:30:54;100821.23;;;15.67;86.15
43683;BME280;29285;52.128;21.060;2023-05-22T00:35:56;100819.14;;;15.60;86.20
43683;BME280;29285;52.128;21.060;2023-05-22T00:40:58;100817.77;;;15.54;86.24
43683;BME280;29285;52.128;21.060;2023-05-22T00:46:00;100817.72;;;15.43;86.22
43683;BME280;29285;52.128;21.060;2023-05-22T00:51:01;100816.58;;;15.34;86.21
43683;BME280;29285;52.128;21.060;2023-05-22T00:56:04;100817.08;;;15.29;86.30
43683;BME280;29285;52.128;21.060;2023-05-22T01:01:06;100817.30;;;15.20;86.40
43683;BME280;29285;52.128;21.060;2023-05-22T01:06:11;100816.03;;;15.15;86.48
43683;BME280;29285;52.128;21.060;2023-05-22T01:11:17;100817.11;;;15.08;86.55
43683;BME280;29285;52.128;21.060;2023-05-22T01:16:36;100820.48;;;15.00;86.63
43683;BME280;29285;52.128;21.060;2023-05-22T01:32:22;100815.07;;;14.79;86.87
43683;BME280;29285;52.128;21.060;2023-05-22T01:37:24;100812.41;;;14.73;86.97
43683;BME280;29285;52.128;21.060;2023-05-22T01:42:27;100816.05;;;14.66;87.02
43683;BME280;29285;52.128;21.060;2023-05-22T01:47:28;100816.90;;;14.61;87.07
43683;BME280;29285;52.128;21.060;2023-05-22T01:52:39;100823.51;;;14.55;87.23
43683;BME280;29285;52.128;21.060;2023-05-22T01:58:33;100822.05;;;14.50;87.32
43683;BME280;29285;52.128;21.060;2023-05-22T02:03:15;100823.95;;;14.44;87.42
43683;BME280;29285;52.128;21.060;2023-05-22T02:08:19;100824.35;;;14.41;87.59
43683;BME280;29285;52.128;21.060;2023-05-22T02:13:21;100820.98;;;14.36;87.65
43683;BME280;29285;52.128;21.060;2023-05-22T02:18:26;100822.73;;;14.28;87.77
43683;BME280;29285;52.128;21.060;2023-05-22T02:23:29;100821.23;;;14.18;87.72
43683;BME280;29285;52.128;21.060;2023-05-22T02:28:30;100821.57;;;14.11;87.65
43683;BME280;29285;52.128;21.060;2023-05-22T02:33:31;100818.84;;;14.08;87.91
43683;BME280;29285;52.128;21.060;2023-05-22T02:38:32;100817.46;;;14.07;88.12
43683;BME280;29285;52.128;21.060;2023-05-22T02:43:33;100815.43;;;14.05;88.25
43683;BME280;29285;52.128;21.060;2023-05-22T02:48:34;100814.45;;;14.02;88.37
43683;BME280;29285;52.128;21.060;2023-05-22T02:53:36;100811.24;;;13.97;88.35
43683;BME280;29285;52.128;21.060;2023-05-22T02:58:39;100809.42;;;13.93;88.50
43683;BME280;29285;52.128;21.060;2023-05-22T03:03:41;100805.84;;;13.89;88.67
43683;BME280;29285;52.128;21.060;2023-05-22T03:08:43;100800.27;;;13.88;88.73
43683;BME280;29285;52.128;21.060;2023-05-22T03:13:44;100796.14;;;13.87;88.89
43683;BME280;29285;52.128;21.060;2023-05-22T03:18:45;100795.05;;;13.88;89.17
43683;BME280;29285;52.128;21.060;2023-05-22T03:23:46;100791.16;;;13.90;89.35
43683;BME280;29285;52.128;21.060;2023-05-22T03:28:47;100791.65;;;13.92;89.53
43683;BME280;29285;52.128;21.060;2023-05-22T03:33:50;100787.23;;;13.95;89.62
43683;BME280;29285;52.128;21.060;2023-05-22T03:38:51;100790.76;;;14.01;89.81
43683;BME280;29285;52.128;21.060;2023-05-22T03:43:52;100789.88;;;14.09;90.23
43683;BME280;29285;52.128;21.060;2023-05-22T03:48:54;100789.84;;;14.18;90.44
43683;BME280;29285;52.128;21.060;2023-05-22T03:53:55;100793.80;;;14.27;90.74
43683;BME280;29285;52.128;21.060;2023-05-22T03:58:56;100793.55;;;14.38;91.06
43683;BME280;29285;52.128;21.060;2023-05-22T04:03:57;100791.54;;;14.49;91.26
43683;BME280;29285;52.128;21.060;2023-05-22T04:08:59;100790.48;;;14.63;91.63
43683;BME280;29285;52.128;21.060;2023-05-22T04:14:02;100794.86;;;14.77;91.96
43683;BME280;29285;52.128;21.060;2023-05-22T04:19:03;100793.96;;;14.91;92.26
43683;BME280;29285;52.128;21.060;2023-05-22T04:24:05;100799.38;;;15.04;92.48
43683;BME280;29285;52.128;21.060;2023-05-22T04:29:07;100796.27;;;15.16;92.74
43683;BME280;29285;52.128;21.060;2023-05-22T04:34:10;100797.86;;;15.28;92.98
43683;BME280;29285;52.128;21.060;2023-05-22T04:39:14;100790.75;;;15.38;93.17
43683;BME280;29285;52.128;21.060;2023-05-22T04:44:15;100783.80;;;15.49;93.30
43683;BME280;29285;52.128;21.060;2023-05-22T04:49:16;100774.13;;;15.57;93.41
43683;BME280;29285;52.128;21.060;2023-05-22T04:54:17;100775.37;;;15.62;93.44
43683;BME280;29285;52.128;21.060;2023-05-22T04:59:18;100777.94;;;15.76;93.74
43683;BME280;29285;52.128;21.060;2023-05-22T05:04:23;100775.45;;;15.89;93.97
43683;BME280;29285;52.128;21.060;2023-05-22T05:09:24;100777.70;;;16.02;94.26
43683;BME280;29285;52.128;21.060;2023-05-22T05:14:25;100778.77;;;16.17;94.57
43683;BME280;29285;52.128;21.060;2023-05-22T05:19:26;100783.48;;;16.35;94.77
43683;BME280;29285;52.128;21.060;2023-05-22T05:24:27;100783.57;;;16.53;95.08
43683;BME280;29285;52.128;21.060;2023-05-22T05:29:28;100785.89;;;16.72;95.36
43683;BME280;29285;52.128;21.060;2023-05-22T05:34:29;100790.92;;;16.89;95.58
43683;BME280;29285;52.128;21.060;2023-05-22T05:39:31;100791.50;;;17.02;95.79
43683;BME280;29285;52.128;21.060;2023-05-22T05:44:32;100792.23;;;17.17;95.94
43683;BME280;29285;52.128;21.060;2023-05-22T05:49:33;100792.46;;;17.30;96.13
43683;BME280;29285;52.128;21.060;2023-05-22T05:54:34;100788.39;;;17.46;96.30
43683;BME280;29285;52.128;21.060;2023-05-22T05:59:35;100785.67;;;17.62;96.59
43683;BME280;29285;52.128;21.060;2023-05-22T06:04:36;100787.23;;;17.72;96.75
43683;BME280;29285;52.128;21.060;2023-05-22T06:09:37;100780.52;;;17.82;96.74
43683;BME280;29285;52.128;21.060;2023-05-22T06:14:38;100782.30;;;17.85;96.82
43683;BME280;29285;52.128;21.060;2023-05-22T06:19:42;100776.90;;;17.98;96.98
43683;BME280;29285;52.128;21.060;2023-05-22T06:24:43;100771.33;;;18.11;97.09
43683;BME280;29285;52.128;21.060;2023-05-22T06:29:44;100770.84;;;18.23;97.19
43683;BME280;29285;52.128;21.060;2023-05-22T06:34:46;100761.52;;;18.32;97.28
43683;BME280;29285;52.128;21.060;2023-05-22T06:39:48;100764.76;;;18.47;97.51
43683;BME280;29285;52.128;21.060;2023-05-22T06:44:49;100764.70;;;18.61;97.52
43683;BME280;29285;52.128;21.060;2023-05-22T06:49:50;100767.15;;;18.73;97.55
43683;BME280;29285;52.128;21.060;2023-05-22T06:54:51;100771.85;;;18.87;97.69
43683;BME280;29285;52.128;21.060;2023-05-22T06:59:53;100765.23;;;18.98;97.72
43683;BME280;29285;52.128;21.060;2023-05-22T07:04:54;100769.16;;;19.09;97.77
43683;BME280;29285;52.128;21.060;2023-05-22T07:09:55;100767.75;;;19.21;97.90
43683;BME280;29285;52.128;21.060;2023-05-22T07:14:56;100766.34;;;19.32;98.02
43683;BME280;29285;52.128;21.060;2023-05-22T07:19:59;100764.31;;;19.46;98.20
43683;BME280;29285;52.128;21.060;2023-05-22T07:25:00;100760.09;;;19.57;98.22
43683;BME280;29285;52.128;21.060;2023-05-22T07:30:02;100759.43;;;19.68;98.30
43683;BME280;29285;52.128;21.060;2023-05-22T07:35:03;100758.98;;;19.77;98.32
43683;BME280;29285;52.128;21.060;2023-05-22T07:40:06;100757.27;;;19.91;98.37
43683;BME280;29285;52.128;21.060;2023-05-22T07:45:08;100754.12;;;20.06;98.52
43683;BME280;29285;52.128;21.060;2023-05-22T07:50:10;100750.41;;;20.20;98.53
43683;BME280;29285;52.128;21.060;2023-05-22T07:55:11;100747.36;;;20.39;98.64
43683;BME280;29285;52.128;21.060;2023-05-22T08:00:12;100744.71;;;20.53;98.60
43683;BME280;29285;52.128;21.060;2023-05-22T08:05:14;100743.91;;;20.59;98.41
43683;BME280;29285;52.128;21.060;2023-05-22T08:10:17;100747.03;;;20.73;98.42
43683;BME280;29285;52.128;21.060;2023-05-22T08:15:18;100743.08;;;20.82;98.18
43683;BME280;29285;52.128;21.060;2023-05-22T08:20:19;100742.24;;;20.74;97.76
43683;BME280;29285;52.128;21.060;2023-05-22T08:25:20;100735.96;;;20.66;97.35
43683;BME280;29285;52.128;21.060;2023-05-22T08:30:21;100732.89;;;20.64;97.16
43683;BME280;29285;52.128;21.060;2023-05-22T08:35:23;100729.09;;;20.69;97.12
43683;BME280;29285;52.128;21.060;2023-05-22T08:40:36;100727.64;;;20.80;97.06
43683;BME280;29285;52.128;21.060;2023-05-22T08:45:38;100724.41;;;20.85;96.89
43683;BME280;29285;52.128;21.060;2023-05-22T08:50:42;100729.35;;;20.85;96.70
43683;BME280;29285;52.128;21.060;2023-05-22T08:55:44;100730.02;;;20.99;96.66
43683;BME280;29285;52.128;21.060;2023-05-22T09:00:45;100723.69;;;21.15;96.74
43683;BME280;29285;52.128;21.060;2023-05-22T09:05:46;100716.89;;;21.30;96.75
43683;BME280;29285;52.128;21.060;2023-05-22T09:10:49;100708.13;;;21.48;96.74
43683;BME280;29285;52.128;21.060;2023-05-22T09:15:50;100706.67;;;21.65;96.78
43683;BME280;29285;52.128;21.060;2023-05-22T09:20:51;100702.40;;;21.82;96.74
43683;BME280;29285;52.128;21.060;2023-05-22T09:25:57;100702.98;;;21.99;96.76
43683;BME280;29285;52.128;21.060;2023-05-22T09:30:59;100690.38;;;22.13;96.64
43683;BME280;29285;52.128;21.060;2023-05-22T09:36:00;100689.16;;;22.21;96.45
43683;BME280;29285;52.128;21.060;2023-05-22T09:41:01;100690.25;;;22.27;96.22
43683;BME280;29285;52.128;21.060;2023-05-22T09:46:02;100683.64;;;22.34;96.01
43683;BME280;29285;52.128;21.060;2023-05-22T09:51:05;100679.19;;;22.41;95.90
43683;BME280;29285;52.128;21.060;2023-05-22T09:56:10;100682.85;;;22.42;95.62
43683;BME280;29285;52.128;21.060;2023-05-22T10:01:13;100680.89;;;22.45;95.49
43683;BME280;29285;52.128;21.060;2023-05-22T10:06:17;100678.57;;;22.48;95.32
43683;BME280;29285;52.128;21.060;2023-05-22T10:11:19;100680.64;;;22.40;94.99
43683;BME280;29285;52.128;21.060;2023-05-22T10:16:22;100680.11;;;22.34;94.57
43683;BME280;29285;52.128;21.060;2023-05-22T10:21:27;100673.04;;;22.34;94.38
43683;BME280;29285;52.128;21.060;2023-05-22T10:26:30;100667.55;;;22.43;94.34
43683;BME280;29285;52.128;21.060;2023-05-22T10:31:46;100669.58;;;22.48;94.19
43683;BME280;29285;52.128;21.060;2023-05-22T10:42:11;100666.06;;;22.56;93.73
43683;BME280;29285;52.128;21.060;2023-05-22T10:47:13;100665.23;;;22.58;93.47
43683;BME280;29285;52.128;21.060;2023-05-22T10:52:14;100662.84;;;22.63;93.32
43683;BME280;29285;52.128;21.060;2023-05-22T10:57:18;100660.71;;;22.66;93.10
43683;BME280;29285;52.128;21.060;2023-05-22T11:02:26;100651.55;;;22.71;92.90
43683;BME280;29285;52.128;21.060;2023-05-22T11:07:39;100643.34;;;22.78;92.73
43683;BME280;29285;52.128;21.060;2023-05-22T11:12:40;100644.53;;;22.96;92.70
43683;BME280;29285;52.128;21.060;2023-05-22T11:17:42;100648.39;;;23.25;92.97
43683;BME280;29285;52.128;21.060;2023-05-22T11:23:04;100643.16;;;23.57;93.22
43683;BME280;29285;52.128;21.060;2023-05-22T11:28:06;100632.95;;;23.85;93.27
43683;BME280;29285;52.128;21.060;2023-05-22T11:33:07;100626.85;;;24.10;93.03
43683;BME280;29285;52.128;21.060;2023-05-22T11:38:09;100629.05;;;24.41;93.11
43683;BME280;29285;52.128;21.060;2023-05-22T11:43:11;100616.40;;;24.54;92.80
43683;BME280;29285;52.128;21.060;2023-05-22T11:48:12;100612.66;;;24.62;92.40
43683;BME280;29285;52.128;21.060;2023-05-22T11:53:13;100611.66;;;24.79;92.15
43683;BME280;29285;52.128;21.060;2023-05-22T11:58:14;100608.42;;;24.77;91.70
43683;BME280;29285;52.128;21.060;2023-05-22T12:03:14;100607.80;;;24.65;91.15
43683;BME280;29285;52.128;21.060;2023-05-22T12:08:17;100600.57;;;24.73;90.82
43683;BME280;29285;52.128;21.060;2023-05-22T12:13:26;100598.17;;;24.87;90.74
43683;BME280;29285;52.128;21.060;2023-05-22T12:18:35;100596.81;;;24.93;90.42
43683;BME280;29285;52.128;21.060;2023-05-22T12:23:46;100592.73;;;24.96;90.08
43683;BME280;29285;52.128;21.060;2023-05-22T12:28:52;100585.64;;;25.03;89.74
43683;BME280;29285;52.128;21.060;2023-05-22T12:33:54;100581.31;;;25.09;89.58
43683;BME280;29285;52.128;21.060;2023-05-22T12:38:56;100579.33;;;25.14;89.29
43683;BME280;29285;52.128;21.060;2023-05-22T12:43:57;100577.23;;;25.19;89.09
43683;BME280;29285;52.128;21.060;2023-05-22T12:49:00;100578.66;;;25.16;88.70
43683;BME280;29285;52.128;21.060;2023-05-22T12:54:01;100571.80;;;25.18;88.32
43683;BME280;29285;52.128;21.060;2023-05-22T12:59:03;100568.61;;;25.25;88.15
43683;BME280;29285;52.128;21.060;2023-05-22T13:04:04;100564.17;;;25.13;87.47
43683;BME280;29285;52.128;21.060;2023-05-22T13:09:05;100564.84;;;25.11;87.13
43683;BME280;29285;52.128;21.060;2023-05-22T13:14:06;100562.58;;;25.20;86.96
43683;BME280;29285;52.128;21.060;2023-05-22T13:19:08;100559.96;;;25.34;86.93
43683;BME280;29285;52.128;21.060;2023-05-22T13:24:09;100552.65;;;25.34;86.59
43683;BME280;29285;52.128;21.060;2023-05-22T13:29:11;100550.94;;;25.38;86.30
43683;BME280;29285;52.128;21.060;2023-05-22T13:34:12;100546.12;;;25.41;86.10
43683;BME280;29285;52.128;21.060;2023-05-22T13:39:13;100546.20;;;25.35;85.70
43683;BME280;29285;52.128;21.060;2023-05-22T13:44:13;100545.77;;;25.48;85.52
43683;BME280;29285;52.128;21.060;2023-05-22T13:49:15;100544.00;;;25.70;85.57
43683;BME280;29285;52.128;21.060;2023-05-22T13:54:16;100539.59;;;25.99;85.91
43683;BME280;29285;52.128;21.060;2023-05-22T13:59:16;100532.93;;;26.19;85.90
43683;BME280;29285;52.128;21.060;2023-05-22T14:04:18;100530.58;;;26.29;85.46
43683;BME280;29285;52.128;21.060;2023-05-22T14:09:19;100527.97;;;26.41;85.28
43683;BME280;29285;52.128;21.060;2023-05-22T14:14:20;100524.04;;;26.46;84.93
43683;BME280;29285;52.128;21.060;2023-05-22T14:19:23;100516.75;;;26.46;84.55
43683;BME280;29285;52.128;21.060;2023-05-22T14:24:24;100514.38;;;26.47;84.21
43683;BME280;29285;52.128;21.060;2023-05-22T14:29:26;100514.50;;;26.50;83.92
43683;BME280;29285;52.128;21.060;2023-05-22T14:34:28;100505.42;;;26.50;83.55
43683;BME280;29285;52.128;21.060;2023-05-22T14:39:29;100504.77;;;26.56;83.37
43683;BME280;29285;52.128;21.060;2023-05-22T14:44:30;100500.78;;;26.52;82.92
43683;BME280;29285;52.128;21.060;2023-05-22T14:49:31;100499.30;;;26.55;82.63
43683;BME280;29285;52.128;21.060;2023-05-22T14:54:32;100496.36;;;26.56;82.35
43683;BME280;29285;52.128;21.060;2023-05-22T14:59:33;100491.95;;;26.56;82.04
43683;BME280;29285;52.128;21.060;2023-05-22T15:04:34;100491.88;;;26.54;81.66
43683;BME280;29285;52.128;21.060;2023-05-22T15:09:35;100492.62;;;26.52;81.52
43683;BME280;29285;52.128;21.060;2023-05-22T15:14:36;100490.89;;;26.54;81.41
43683;BME280;29285;52.128;21.060;2023-05-22T15:19:36;100486.83;;;26.69;81.66
43683;BME280;29285;52.128;21.060;2023-05-22T15:24:37;100483.17;;;26.79;81.66
43683;BME280;29285;52.128;21.060;2023-05-22T15:29:38;100483.42;;;26.93;81.79
43683;BME280;29285;52.128;21.060;2023-05-22T15:34:40;100478.61;;;27.17;82.19
43683;BME280;29285;52.128;21.060;2023-05-22T15:39:41;100474.67;;;27.37;82.49
43683;BME280;29285;52.128;21.060;2023-05-22T15:44:41;100471.61;;;27.43;82.25
43683;BME280;29285;52.128;21.060;2023-05-22T15:49:42;100467.75;;;27.55;82.42
43683;BME280;29285;52.128;21.060;2023-05-22T15:54:43;100458.61;;;27.63;82.37
43683;BME280;29285;52.128;21.060;2023-05-22T15:59:44;100458.11;;;27.58;82.14
43683;BME280;29285;52.128;21.060;2023-05-22T16:04:47;100456.71;;;27.55;81.80
43683;BME280;29285;52.128;21.060;2023-05-22T16:09:48;100451.83;;;27.65;81.84
43683;BME280;29285;52.128;21.060;2023-05-22T16:14:50;100451.67;;;27.75;81.78
43683;BME280;29285;52.128;21.060;2023-05-22T16:19:51;100445.23;;;27.81;81.50
43683;BME280;29285;52.128;21.060;2023-05-22T16:24:52;100438.20;;;27.91;81.20
43683;BME280;29285;52.128;21.060;2023-05-22T16:29:53;100436.75;;;28.07;81.05
43683;BME280;29285;52.128;21.060;2023-05-22T16:34:54;100433.46;;;28.33;80.85
43683;BME280;29285;52.128;21.060;2023-05-22T16:39:55;100429.11;;;28.53;80.56
43683;BME280;29285;52.128;21.060;2023-05-22T16:44:59;100432.60;;;28.66;79.98
43683;BME280;29285;52.128;21.060;2023-05-22T16:50:01;100434.44;;;28.75;79.29
43683;BME280;29285;52.128;21.060;2023-05-22T16:55:02;100430.27;;;28.86;78.77
43683;BME280;29285;52.128;21.060;2023-05-22T17:00:04;100432.04;;;28.92;78.31
43683;BME280;29285;52.128;21.060;2023-05-22T17:05:06;100435.18;;;28.89;77.58
43683;BME280;29285;52.128;21.060;2023-05-22T17:10:07;100435.73;;;28.82;76.91
43683;BME280;29285;52.128;21.060;2023-05-22T17:15:09;100442.35;;;28.75;76.44
43683;BME280;29285;52.128;21.060;2023-05-22T17:20:10;100445.50;;;28.56;75.68
43683;BME280;29285;52.128;21.060;2023-05-22T17:25:12;100445.20;;;28.25;74.88
43683;BME280;29285;52.128;21.060;2023-05-22T17:30:13;100444.84;;;27.96;74.40
43683;BME280;29285;52.128;21.060;2023-05-22T17:35:14;100447.83;;;27.57;73.79
43683;BME280;29285;52.128;21.060;2023-05-22T17:40:15;100448.01;;;26.89;72.71
43683;BME280;29285;52.128;21.060;2023-05-22T17:45:16;100447.39;;;26.22;71.59
43683;BME280;29285;52.128;21.060;2023-05-22T17:50:17;100447.17;;;25.60;70.74
43683;BME280;29285;52.128;21.060;2023-05-22T17:55:18;100441.98;;;25.05;69.98
43683;BME280;29285;52.128;21.060;2023-05-22T18:00:20;100439.58;;;24.57;69.61
43683;BME280;29285;52.128;21.060;2023-05-22T18:05:21;100436.02;;;24.13;69.07
43683;BME280;29285;52.128;21.060;2023-05-22T18:10:22;100436.59;;;23.74;68.56
43683;BME280;29285;52.128;21.060;2023-05-22T18:15:27;100434.61;;;23.38;68.35
43683;BME280;29285;52.128;21.060;2023-05-22T18:20:28;100435.40;;;23.08;68.03
43683;BME280;29285;52.128;21.060;2023-05-22T18:25:30;100435.98;;;22.77;67.81
43683;BME280;29285;52.128;21.060;2023-05-22T18:30:30;100432.59;;;22.47;67.49
43683;BME280;29285;52.128;21.060;2023-05-22T18:35:32;100432.74;;;22.17;67.14
43683;BME280;29285;52.128;21.060;2023-05-22T18:40:33;100436.66;;;21.88;66.91
43683;BME280;29285;52.128;21.060;2023-05-22T18:45:34;100440.31;;;21.62;66.79
43683;BME280;29285;52.128;21.060;2023-05-22T18:50:35;100439.19;;;21.36;66.62
43683;BME280;29285;52.128;21.060;2023-05-22T18:55:36;100441.01;;;21.14;66.61
43683;BME280;29285;52.128;21.060;2023-05-22T19:00:37;100440.40;;;20.94;66.58
43683;BME280;29285;52.128;21.060;2023-05-22T19:05:38;100439.70;;;20.72;66.52
43683;BME280;29285;52.128;21.060;2023-05-22T19:10:39;100441.37;;;20.55;66.49
43683;BME280;29285;52.128;21.060;2023-05-22T19:15:41;100445.09;;;20.35;66.49
43683;BME280;29285;52.128;21.060;2023-05-22T19:20:42;100446.48;;;20.16;66.40
43683;BME280;29285;52.128;21.060;2023-05-22T19:25:44;100454.55;;;20.00;66.47
43683;BME280;29285;52.128;21.060;2023-05-22T19:30:45;100455.16;;;19.85;66.47
43683;BME280;29285;52.128;21.060;2023-05-22T19:35:46;100451.45;;;19.71;66.59
43683;BME280;29285;52.128;21.060;2023-05-22T19:40:48;100445.91;;;19.60;66.72
43683;BME280;29285;52.128;21.060;2023-05-22T19:45:49;100449.49;;;19.48;66.75
43683;BME280;29285;52.128;21.060;2023-05-22T19:50:50;100452.51;;;19.34;66.79
43683;BME280;29285;52.128;21.060;2023-05-22T19:55:51;100446.16;;;19.20;66.82
43683;BME280;29285;52.128;21.060;2023-05-22T20:00:52;100447.55;;;19.09;67.03
43683;BME280;29285;52.128;21.060;2023-05-22T20:05:54;100448.06;;;18.95;67.05
43683;BME280;29285;52.128;21.060;2023-05-22T20:10:55;100450.04;;;18.83;67.15
43683;BME280;29285;52.128;21.060;2023-05-22T20:15:56;100446.52;;;18.73;67.22
43683;BME280;29285;52.128;21.060;2023-05-22T20:20:57;100440.81;;;18.59;67.30
43683;BME280;29285;52.128;21.060;2023-05-22T20:25:59;100441.26;;;18.46;67.34
43683;BME280;29285;52.128;21.060;2023-05-22T20:31:00;100438.30;;;18.30;67.34
43683;BME280;29285;52.128;21.060;2023-05-22T20:36:01;100432.75;;;18.17;67.44
43683;BME280;29285;52.128;21.060;2023-05-22T20:41:02;100432.20;;;18.06;67.56
43683;BME280;29285;52.128;21.060;2023-05-22T20:46:06;100432.91;;;17.97;67.74
43683;BME280;29285;52.128;21.060;2023-05-22T20:51:07;100430.60;;;17.90;67.81
43683;BME280;29285;52.128;21.060;2023-05-22T20:56:09;100431.29;;;17.83;68.02
43683;BME280;29285;52.128;21.060;2023-05-22T21:01:11;100432.80;;;17.77;68.15
43683;BME280;29285;52.128;21.060;2023-05-22T21:06:12;100427.09;;;17.67;68.29
43683;BME280;29285;52.128;21.060;2023-05-22T21:11:13;100429.20;;;17.58;68.41
43683;BME280;29285;52.128;21.060;2023-05-22T21:16:14;100428.36;;;17.50;68.51
43683;BME280;29285;52.128;21.060;2023-05-22T21:21:17;100434.92;;;17.44;68.71
43683;BME280;29285;52.128;21.060;2023-05-22T21:26:20;100426.73;;;17.38;68.87
43683;BME280;29285;52.128;21.060;2023-05-22T21:31:23;100419.71;;;17.30;69.05
43683;BME280;29285;52.128;21.060;2023-05-22T21:36:24;100414.77;;;17.23;69.14
43683;BME280;29285;52.128;21.060;2023-05-22T21:41:25;100419.35;;;17.18;69.34
43683;BME280;29285;52.128;21.060;2023-05-22T21:46:29;100420.83;;;17.12;69.48
43683;BME280;29285;52.128;21.060;2023-05-22T21:51:31;100422.24;;;17.03;69.57
43683;BME280;29285;52.128;21.060;2023-05-22T21:56:32;100420.73;;;16.97;69.82
43683;BME280;29285;52.128;21.060;2023-05-22T22:01:33;100423.80;;;16.90;69.86
43683;BME280;29285;52.128;21.060;2023-05-22T22:06:35;100418.77;;;16.81;69.91
43683;BME280;29285;52.128;21.060;2023-05-22T22:11:36;100415.92;;;16.72;70.01
43683;BME280;29285;52.128;21.060;2023-05-22T22:16:42;100418.25;;;16.67;70.23
43683;BME280;29285;52.128;21.060;2023-05-22T22:21:44;100417.73;;;16.62;70.44
